sensor_id;sensor_type;location;lat;lon;timestamp;temperature;humidity
22224;DHT22;11281;52.194;21.006;2022-07-18T00:02:56;11.50;99.90
22224;DHT22;11281;52.194;21.006;2022-07-18T00:06:58;11.50;99.90
22224;DHT22;11281;52.194;21.006;2022-07-18T00:11:00;11.40;99.90
22224;DHT22;11281;52.194;21.006;2022-07-18T00:15:03;11.40;99.90
22224;DHT22;11281;52.194;21.006;2022-07-18T00:19:06;11.60;99.90
22224;DHT22;11281;52.194;21.006;2022-07-18T00:23:07;11.60;99.90
22224;DHT22;11281;52.194;21.006;2022-07-18T00:27:09;11.60;99.90
22224;DHT22;11281;52.194;21.006;2022-07-18T00:31:10;11.60;99.90
22224;DHT22;11281;52.194;21.006;2022-07-18T00:35:12;11.30;99.90
22224;DHT22;11281;52.194;21.006;2022-07-18T00:39:14;11.30;99.90
22224;DHT22;11281;52.194;21.006;2022-07-18T00:43:16;11.20;99.90
22224;DHT22;11281;52.194;21.006;2022-07-18T00:47:17;11.20;99.90
22224;DHT22;11281;52.194;21.006;2022-07-18T00:51:20;11.10;99.90
22224;DHT22;11281;52.194;21.006;2022-07-18T00:55:22;11.20;99.90
22224;DHT22;11281;52.194;21.006;2022-07-18T00:59:24;11.20;99.90
22224;DHT22;11281;52.194;21.006;2022-07-18T01:03:47;11.50;99.90
22224;DHT22;11281;52.194;21.006;2022-07-18T01:07:49;11.20;99.90
22224;DHT22;11281;52.194;21.006;2022-07-18T01:11:53;11.20;99.90
22224;DHT22;11281;52.194;21.006;2022-07-18T01:15:54;11.20;99.90
22224;DHT22;11281;52.194;21.006;2022-07-18T01:19:56;11.20;99.90
22224;DHT22;11281;52.194;21.006;2022-07-18T01:23:58;11.10;99.90
22224;DHT22;11281;52.194;21.006;2022-07-18T01:28:00;11.00;99.90
22224;DHT22;11281;52.194;21.006;2022-07-18T01:32:06;10.90;99.90
22224;DHT22;11281;52.194;21.006;2022-07-18T01:36:08;11.00;99.90
22224;DHT22;11281;52.194;21.006;2022-07-18T01:40:11;10.90;99.90
22224;DHT22;11281;52.194;21.006;2022-07-18T01:44:12;10.80;99.90
22224;DHT22;11281;52.194;21.006;2022-07-18T01:48:14;10.80;99.90
22224;DHT22;11281;52.194;21.006;2022-07-18T01:52:16;10.70;99.90
22224;DHT22;11281;52.194;21.006;2022-07-18T01:56:18;10.70;99.90
22224;DHT22;11281;52.194;21.006;2022-07-18T02:00:20;10.60;99.90
22224;DHT22;11281;52.194;21.006;2022-07-18T02:04:22;10.50;99.90
22224;DHT22;11281;52.194;21.006;2022-07-18T02:08:43;10.40;99.90
22224;DHT22;11281;52.194;21.006;2022-07-18T02:12:45;10.30;99.90
22224;DHT22;11281;52.194;21.006;2022-07-18T02:16:47;10.30;99.90
22224;DHT22;11281;52.194;21.006;2022-07-18T02:20:49;10.50;99.90
22224;DHT22;11281;52.194;21.006;2022-07-18T02:24:52;10.80;99.90
22224;DHT22;11281;52.194;21.006;2022-07-18T02:28:53;10.60;99.90
22224;DHT22;11281;52.194;21.006;2022-07-18T02:32:55;10.60;99.90
22224;DHT22;11281;52.194;21.006;2022-07-18T02:36:57;10.30;99.90
22224;DHT22;11281;52.194;21.006;2022-07-18T02:40:59;10.20;99.90
22224;DHT22;11281;52.194;21.006;2022-07-18T02:45:01;10.40;99.90
22224;DHT22;11281;52.194;21.006;2022-07-18T02:49:03;10.50;99.90
22224;DHT22;11281;52.194;21.006;2022-07-18T02:53:05;10.30;99.90
22224;DHT22;11281;52.194;21.006;2022-07-18T02:57:07;10.40;99.90
22224;DHT22;11281;52.194;21.006;2022-07-18T03:01:09;10.40;99.90
22224;DHT22;11281;52.194;21.006;2022-07-18T03:05:11;10.50;99.90
22224;DHT22;11281;52.194;21.006;2022-07-18T03:09:14;10.60;99.90
22224;DHT22;11281;52.194;21.006;2022-07-18T03:13:16;10.60;99.90
22224;DHT22;11281;52.194;21.006;2022-07-18T03:17:19;10.70;99.90
22224;DHT22;11281;52.194;21.006;2022-07-18T03:21:21;10.70;99.90
22224;DHT22;11281;52.194;21.006;2022-07-18T03:25:22;10.90;99.90
22224;DHT22;11281;52.194;21.006;2022-07-18T03:29:24;11.10;99.90
22224;DHT22;11281;52.194;21.006;2022-07-18T03:33:27;11.30;99.90
22224;DHT22;11281;52.194;21.006;2022-07-18T03:37:28;11.30;99.90
22224;DHT22;11281;52.194;21.006;2022-07-18T03:41:30;11.40;99.90
22224;DHT22;11281;52.194;21.006;2022-07-18T03:45:32;11.60;99.90
22224;DHT22;11281;52.194;21.006;2022-07-18T03:49:34;11.70;99.90
22224;DHT22;11281;52.194;21.006;2022-07-18T03:53:36;11.90;99.90
22224;DHT22;11281;52.194;21.006;2022-07-18T03:57:38;11.90;99.90
22224;DHT22;11281;52.194;21.006;2022-07-18T04:01:40;12.00;99.90
22224;DHT22;11281;52.194;21.006;2022-07-18T04:05:42;12.00;99.90
22224;DHT22;11281;52.194;21.006;2022-07-18T04:09:43;12.10;99.90
22224;DHT22;11281;52.194;21.006;2022-07-18T04:13:46;12.10;99.90
22224;DHT22;11281;52.194;21.006;2022-07-18T04:17:48;12.20;99.90
22224;DHT22;11281;52.194;21.006;2022-07-18T04:21:50;12.20;99.90
22224;DHT22;11281;52.194;21.006;2022-07-18T04:25:52;12.40;99.90
22224;DHT22;11281;52.194;21.006;2022-07-18T04:29:54;12.50;99.90
22224;DHT22;11281;52.194;21.006;2022-07-18T04:33:55;12.70;99.90
22224;DHT22;11281;52.194;21.006;2022-07-18T04:37:57;12.90;99.90
22224;DHT22;11281;52.194;21.006;2022-07-18T04:41:59;13.10;99.90
22224;DHT22;11281;52.194;21.006;2022-07-18T04:46:01;13.20;99.90
22224;DHT22;11281;52.194;21.006;2022-07-18T04:50:05;13.40;99.90
22224;DHT22;11281;52.194;21.006;2022-07-18T04:54:07;13.60;99.90
22224;DHT22;11281;52.194;21.006;2022-07-18T04:58:09;13.80;99.90
22224;DHT22;11281;52.194;21.006;2022-07-18T05:02:11;13.90;99.90
22224;DHT22;11281;52.194;21.006;2022-07-18T05:06:13;14.10;99.90
22224;DHT22;11281;52.194;21.006;2022-07-18T05:10:17;14.30;99.90
22224;DHT22;11281;52.194;21.006;2022-07-18T05:14:19;14.20;99.90
22224;DHT22;11281;52.194;21.006;2022-07-18T05:18:21;14.30;99.90
22224;DHT22;11281;52.194;21.006;2022-07-18T05:22:23;14.30;99.90
22224;DHT22;11281;52.194;21.006;2022-07-18T05:26:25;14.30;99.90
22224;DHT22;11281;52.194;21.006;2022-07-18T05:30:27;14.50;99.90
22224;DHT22;11281;52.194;21.006;2022-07-18T05:34:29;14.70;99.90
22224;DHT22;11281;52.194;21.006;2022-07-18T05:38:31;14.90;99.90
22224;DHT22;11281;52.194;21.006;2022-07-18T05:42:33;15.00;99.90
22224;DHT22;11281;52.194;21.006;2022-07-18T05:46:34;15.40;99.90
22224;DHT22;11281;52.194;21.006;2022-07-18T05:50:36;15.60;99.90
22224;DHT22;11281;52.194;21.006;2022-07-18T05:54:38;15.80;99.90
22224;DHT22;11281;52.194;21.006;2022-07-18T05:58:39;16.10;99.90
22224;DHT22;11281;52.194;21.006;2022-07-18T06:02:41;17.70;99.90
22224;DHT22;11281;52.194;21.006;2022-07-18T06:06:42;21.30;99.90
22224;DHT22;11281;52.194;21.006;2022-07-18T06:10:45;23.50;99.90
22224;DHT22;11281;52.194;21.006;2022-07-18T06:14:50;25.20;90.80
22224;DHT22;11281;52.194;21.006;2022-07-18T06:18:52;24.90;92.30
22224;DHT22;11281;52.194;21.006;2022-07-18T06:22:53;25.40;85.90
22224;DHT22;11281;52.194;21.006;2022-07-18T06:26:55;22.50;94.00
22224;DHT22;11281;52.194;21.006;2022-07-18T06:30:57;21.70;99.90
22224;DHT22;11281;52.194;21.006;2022-07-18T06:34:59;23.90;99.40
22224;DHT22;11281;52.194;21.006;2022-07-18T06:39:01;21.90;99.90
22224;DHT22;11281;52.194;21.006;2022-07-18T06:43:09;19.70;99.90
22224;DHT22;11281;52.194;21.006;2022-07-18T06:47:11;20.20;99.90
22224;DHT22;11281;52.194;21.006;2022-07-18T06:51:13;20.10;99.90
22224;DHT22;11281;52.194;21.006;2022-07-18T06:55:14;19.30;99.90
22224;DHT22;11281;52.194;21.006;2022-07-18T06:59:17;18.60;99.90
22224;DHT22;11281;52.194;21.006;2022-07-18T07:03:19;18.80;99.90
22224;DHT22;11281;52.194;21.006;2022-07-18T07:07:20;18.90;99.90
22224;DHT22;11281;52.194;21.006;2022-07-18T07:11:22;19.40;99.90
22224;DHT22;11281;52.194;21.006;2022-07-18T07:15:24;19.80;99.90
22224;DHT22;11281;52.194;21.006;2022-07-18T07:19:26;20.50;99.90
22224;DHT22;11281;52.194;21.006;2022-07-18T07:23:28;19.90;99.90
22224;DHT22;11281;52.194;21.006;2022-07-18T07:27:30;20.00;99.90
22224;DHT22;11281;52.194;21.006;2022-07-18T07:31:32;19.40;99.90
22224;DHT22;11281;52.194;21.006;2022-07-18T07:35:34;19.00;99.90
22224;DHT22;11281;52.194;21.006;2022-07-18T07:39:36;19.20;99.90
22224;DHT22;11281;52.194;21.006;2022-07-18T07:43:37;19.90;99.90
22224;DHT22;11281;52.194;21.006;2022-07-18T07:47:40;19.90;99.90
22224;DHT22;11281;52.194;21.006;2022-07-18T07:51:41;19.70;99.90
22224;DHT22;11281;52.194;21.006;2022-07-18T07:55:43;19.40;99.90
22224;DHT22;11281;52.194;21.006;2022-07-18T07:59:45;19.50;99.90
22224;DHT22;11281;52.194;21.006;2022-07-18T08:03:47;19.70;99.90
22224;DHT22;11281;52.194;21.006;2022-07-18T08:07:51;19.80;99.90
22224;DHT22;11281;52.194;21.006;2022-07-18T08:11:52;20.30;99.90
22224;DHT22;11281;52.194;21.006;2022-07-18T08:15:54;20.10;99.90
22224;DHT22;11281;52.194;21.006;2022-07-18T08:19:56;20.20;99.90
22224;DHT22;11281;52.194;21.006;2022-07-18T08:23:58;20.40;99.90
22224;DHT22;11281;52.194;21.006;2022-07-18T08:28:00;20.50;99.90
22224;DHT22;11281;52.194;21.006;2022-07-18T08:32:03;21.10;99.90
22224;DHT22;11281;52.194;21.006;2022-07-18T08:36:05;21.00;99.90
22224;DHT22;11281;52.194;21.006;2022-07-18T08:40:09;21.30;99.90
22224;DHT22;11281;52.194;21.006;2022-07-18T08:44:12;21.30;99.90
22224;DHT22;11281;52.194;21.006;2022-07-18T08:48:15;21.70;99.90
22224;DHT22;11281;52.194;21.006;2022-07-18T08:52:18;21.40;99.90
22224;DHT22;11281;52.194;21.006;2022-07-18T08:56:21;21.50;99.90
22224;DHT22;11281;52.194;21.006;2022-07-18T09:00:23;21.60;99.90
22224;DHT22;11281;52.194;21.006;2022-07-18T09:04:35;21.30;99.90
22224;DHT22;11281;52.194;21.006;2022-07-18T09:08:39;21.90;99.90
22224;DHT22;11281;52.194;21.006;2022-07-18T09:12:55;22.20;99.90
22224;DHT22;11281;52.194;21.006;2022-07-18T09:17:08;22.00;99.90
22224;DHT22;11281;52.194;21.006;2022-07-18T09:21:14;21.80;99.90
22224;DHT22;11281;52.194;21.006;2022-07-18T09:25:21;22.50;99.90
22224;DHT22;11281;52.194;21.006;2022-07-18T09:29:25;22.70;99.90
22224;DHT22;11281;52.194;21.006;2022-07-18T09:33:26;21.80;99.90
22224;DHT22;11281;52.194;21.006;2022-07-18T09:37:28;22.10;99.90
22224;DHT22;11281;52.194;21.006;2022-07-18T09:41:30;22.60;99.90
22224;DHT22;11281;52.194;21.006;2022-07-18T09:45:34;22.30;99.90
22224;DHT22;11281;52.194;21.006;2022-07-18T09:49:37;23.00;99.90
22224;DHT22;11281;52.194;21.006;2022-07-18T09:53:43;23.10;99.90
22224;DHT22;11281;52.194;21.006;2022-07-18T09:57:57;22.80;99.90
22224;DHT22;11281;52.194;21.006;2022-07-18T10:02:06;22.20;99.90
22224;DHT22;11281;52.194;21.006;2022-07-18T10:06:07;21.90;99.90
22224;DHT22;11281;52.194;21.006;2022-07-18T10:10:09;22.60;99.90
22224;DHT22;11281;52.194;21.006;2022-07-18T10:14:11;23.30;99.90
22224;DHT22;11281;52.194;21.006;2022-07-18T10:18:15;23.10;99.90
22224;DHT22;11281;52.194;21.006;2022-07-18T10:22:20;22.60;99.90
22224;DHT22;11281;52.194;21.006;2022-07-18T10:26:24;22.20;99.90
22224;DHT22;11281;52.194;21.006;2022-07-18T10:30:34;23.20;99.90
22224;DHT22;11281;52.194;21.006;2022-07-18T10:34:41;23.10;99.90
22224;DHT22;11281;52.194;21.006;2022-07-18T10:47:30;22.70;99.90
22224;DHT22;11281;52.194;21.006;2022-07-18T10:51:33;22.10;99.90
22224;DHT22;11281;52.194;21.006;2022-07-18T10:55:35;22.20;99.90
22224;DHT22;11281;52.194;21.006;2022-07-18T10:59:39;22.20;99.90
22224;DHT22;11281;52.194;21.006;2022-07-18T11:04:34;21.90;99.90
22224;DHT22;11281;52.194;21.006;2022-07-18T11:08:38;21.70;99.90
22224;DHT22;11281;52.194;21.006;2022-07-18T11:12:39;21.60;99.90
22224;DHT22;11281;52.194;21.006;2022-07-18T11:17:04;21.60;99.90
22224;DHT22;11281;52.194;21.006;2022-07-18T11:25:29;21.70;99.90
22224;DHT22;11281;52.194;21.006;2022-07-18T11:29:31;21.90;99.90
22224;DHT22;11281;52.194;21.006;2022-07-18T11:33:47;22.20;99.90
22224;DHT22;11281;52.194;21.006;2022-07-18T11:37:52;22.40;99.90
22224;DHT22;11281;52.194;21.006;2022-07-18T11:41:54;22.30;99.90
22224;DHT22;11281;52.194;21.006;2022-07-18T11:46:01;22.70;99.90
22224;DHT22;11281;52.194;21.006;2022-07-18T11:50:04;23.00;99.90
22224;DHT22;11281;52.194;21.006;2022-07-18T11:54:06;22.90;99.90
22224;DHT22;11281;52.194;21.006;2022-07-18T11:58:09;23.10;99.90
22224;DHT22;11281;52.194;21.006;2022-07-18T12:02:12;23.40;99.90
22224;DHT22;11281;52.194;21.006;2022-07-18T12:06:24;22.70;99.90
22224;DHT22;11281;52.194;21.006;2022-07-18T12:10:27;22.80;99.90
22224;DHT22;11281;52.194;21.006;2022-07-18T12:14:29;22.80;99.90
22224;DHT22;11281;52.194;21.006;2022-07-18T12:18:30;23.00;99.90
22224;DHT22;11281;52.194;21.006;2022-07-18T12:22:32;22.50;99.90
22224;DHT22;11281;52.194;21.006;2022-07-18T12:26:34;22.20;99.90
22224;DHT22;11281;52.194;21.006;2022-07-18T12:30:36;22.20;99.90
22224;DHT22;11281;52.194;21.006;2022-07-18T12:34:54;22.10;99.90
22224;DHT22;11281;52.194;21.006;2022-07-18T12:39:00;22.40;99.90
22224;DHT22;11281;52.194;21.006;2022-07-18T12:43:09;22.60;99.90
22224;DHT22;11281;52.194;21.006;2022-07-18T12:47:11;22.20;99.90
22224;DHT22;11281;52.194;21.006;2022-07-18T12:51:13;22.40;99.90
22224;DHT22;11281;52.194;21.006;2022-07-18T12:55:14;22.70;99.90
22224;DHT22;11281;52.194;21.006;2022-07-18T12:59:17;22.90;99.90
22224;DHT22;11281;52.194;21.006;2022-07-18T13:03:18;22.60;99.90
22224;DHT22;11281;52.194;21.006;2022-07-18T13:07:21;22.80;99.90
22224;DHT22;11281;52.194;21.006;2022-07-18T13:11:22;23.90;99.90
22224;DHT22;11281;52.194;21.006;2022-07-18T13:15:24;23.90;99.90
22224;DHT22;11281;52.194;21.006;2022-07-18T13:19:26;24.30;99.90
22224;DHT22;11281;52.194;21.006;2022-07-18T13:23:28;23.90;99.90
22224;DHT22;11281;52.194;21.006;2022-07-18T13:27:30;23.50;99.90
22224;DHT22;11281;52.194;21.006;2022-07-18T13:31:32;23.80;99.90
22224;DHT22;11281;52.194;21.006;2022-07-18T13:35:34;23.70;99.90
22224;DHT22;11281;52.194;21.006;2022-07-18T13:39:36;23.00;99.90
22224;DHT22;11281;52.194;21.006;2022-07-18T13:43:38;23.20;99.90
22224;DHT22;11281;52.194;21.006;2022-07-18T13:47:42;23.30;99.90
22224;DHT22;11281;52.194;21.006;2022-07-18T13:51:44;24.00;98.70
22224;DHT22;11281;52.194;21.006;2022-07-18T13:55:47;23.60;98.90
22224;DHT22;11281;52.194;21.006;2022-07-18T13:59:48;23.30;99.90
22224;DHT22;11281;52.194;21.006;2022-07-18T14:03:51;23.10;99.90
22224;DHT22;11281;52.194;21.006;2022-07-18T14:07:53;22.80;99.90
22224;DHT22;11281;52.194;21.006;2022-07-18T14:11:55;23.10;99.90
22224;DHT22;11281;52.194;21.006;2022-07-18T14:15:57;23.50;99.90
22224;DHT22;11281;52.194;21.006;2022-07-18T14:19:59;23.80;99.90
22224;DHT22;11281;52.194;21.006;2022-07-18T14:24:01;23.80;99.90
22224;DHT22;11281;52.194;21.006;2022-07-18T14:28:02;23.60;99.90
22224;DHT22;11281;52.194;21.006;2022-07-18T14:32:05;23.90;99.90
22224;DHT22;11281;52.194;21.006;2022-07-18T14:36:07;24.20;99.40
22224;DHT22;11281;52.194;21.006;2022-07-18T14:40:09;24.00;95.00
22224;DHT22;11281;52.194;21.006;2022-07-18T14:44:11;23.60;96.70
22224;DHT22;11281;52.194;21.006;2022-07-18T14:48:13;23.10;95.00
22224;DHT22;11281;52.194;21.006;2022-07-18T14:52:15;22.90;96.50
22224;DHT22;11281;52.194;21.006;2022-07-18T14:56:17;22.90;99.90
22224;DHT22;11281;52.194;21.006;2022-07-18T15:00:19;23.10;99.90
22224;DHT22;11281;52.194;21.006;2022-07-18T15:04:20;23.30;95.60
22224;DHT22;11281;52.194;21.006;2022-07-18T15:08:23;23.20;97.20
22224;DHT22;11281;52.194;21.006;2022-07-18T15:12:25;23.10;98.90
22224;DHT22;11281;52.194;21.006;2022-07-18T15:16:27;22.90;97.30
22224;DHT22;11281;52.194;21.006;2022-07-18T15:20:29;22.90;96.40
22224;DHT22;11281;52.194;21.006;2022-07-18T15:24:34;23.90;97.10
22224;DHT22;11281;52.194;21.006;2022-07-18T15:28:36;23.90;92.80
22224;DHT22;11281;52.194;21.006;2022-07-18T15:32:37;23.90;90.30
22224;DHT22;11281;52.194;21.006;2022-07-18T15:36:39;24.10;93.70
22224;DHT22;11281;52.194;21.006;2022-07-18T15:40:41;24.20;92.50
22224;DHT22;11281;52.194;21.006;2022-07-18T15:44:44;23.90;94.60
22224;DHT22;11281;52.194;21.006;2022-07-18T15:48:46;23.80;94.10
22224;DHT22;11281;52.194;21.006;2022-07-18T15:52:48;23.50;94.20
22224;DHT22;11281;52.194;21.006;2022-07-18T15:56:50;23.10;96.30
22224;DHT22;11281;52.194;21.006;2022-07-18T16:00:53;23.00;97.80
22224;DHT22;11281;52.194;21.006;2022-07-18T16:04:54;22.90;99.90
22224;DHT22;11281;52.194;21.006;2022-07-18T16:08:56;23.40;98.50
22224;DHT22;11281;52.194;21.006;2022-07-18T16:12:58;23.40;98.10
22224;DHT22;11281;52.194;21.006;2022-07-18T16:16:59;23.20;98.80
22224;DHT22;11281;52.194;21.006;2022-07-18T16:21:01;22.90;99.20
22224;DHT22;11281;52.194;21.006;2022-07-18T16:25:03;23.20;99.90
22224;DHT22;11281;52.194;21.006;2022-07-18T16:29:05;23.20;98.80
22224;DHT22;11281;52.194;21.006;2022-07-18T16:33:06;23.20;98.40
22224;DHT22;11281;52.194;21.006;2022-07-18T16:37:08;23.20;95.40
22224;DHT22;11281;52.194;21.006;2022-07-18T16:41:10;22.90;93.80
22224;DHT22;11281;52.194;21.006;2022-07-18T16:45:12;23.00;92.90
22224;DHT22;11281;52.194;21.006;2022-07-18T16:49:16;23.00;94.80
22224;DHT22;11281;52.194;21.006;2022-07-18T16:53:18;22.80;95.30
22224;DHT22;11281;52.194;21.006;2022-07-18T16:57:20;22.50;95.90
22224;DHT22;11281;52.194;21.006;2022-07-18T17:01:26;22.40;97.30
22224;DHT22;11281;52.194;21.006;2022-07-18T17:05:30;22.30;96.60
22224;DHT22;11281;52.194;21.006;2022-07-18T17:09:32;22.40;99.40
22224;DHT22;11281;52.194;21.006;2022-07-18T17:13:34;22.00;99.90
22224;DHT22;11281;52.194;21.006;2022-07-18T17:17:36;22.10;98.50
22224;DHT22;11281;52.194;21.006;2022-07-18T17:21:41;21.90;99.90
22224;DHT22;11281;52.194;21.006;2022-07-18T17:25:43;21.50;99.90
22224;DHT22;11281;52.194;21.006;2022-07-18T17:29:46;21.40;99.90
22224;DHT22;11281;52.194;21.006;2022-07-18T17:33:48;21.40;99.90
22224;DHT22;11281;52.194;21.006;2022-07-18T17:37:51;21.30;99.90
22224;DHT22;11281;52.194;21.006;2022-07-18T17:41:53;20.90;99.90
22224;DHT22;11281;52.194;21.006;2022-07-18T17:45:55;20.50;99.90
22224;DHT22;11281;52.194;21.006;2022-07-18T17:49:58;20.20;99.90
22224;DHT22;11281;52.194;21.006;2022-07-18T17:54:00;19.90;99.90
22224;DHT22;11281;52.194;21.006;2022-07-18T17:58:02;19.50;99.90
22224;DHT22;11281;52.194;21.006;2022-07-18T18:02:04;19.50;99.90
22224;DHT22;11281;52.194;21.006;2022-07-18T18:06:06;19.20;99.90
22224;DHT22;11281;52.194;21.006;2022-07-18T18:10:09;19.10;99.90
22224;DHT22;11281;52.194;21.006;2022-07-18T18:14:10;18.80;99.90
22224;DHT22;11281;52.194;21.006;2022-07-18T18:18:12;18.60;99.90
22224;DHT22;11281;52.194;21.006;2022-07-18T18:22:14;18.60;99.90
22224;DHT22;11281;52.194;21.006;2022-07-18T18:26:15;18.40;99.90
22224;DHT22;11281;52.194;21.006;2022-07-18T18:30:17;18.20;99.90
22224;DHT22;11281;52.194;21.006;2022-07-18T18:34:20;18.10;99.90
22224;DHT22;11281;52.194;21.006;2022-07-18T18:38:23;17.90;99.90
22224;DHT22;11281;52.194;21.006;2022-07-18T18:42:24;17.80;99.90
22224;DHT22;11281;52.194;21.006;2022-07-18T18:46:26;17.70;99.90
22224;DHT22;11281;52.194;21.006;2022-07-18T18:50:28;17.60;99.90
22224;DHT22;11281;52.194;21.006;2022-07-18T18:54:30;17.60;99.90
22224;DHT22;11281;52.194;21.006;2022-07-18T18:58:35;17.50;99.90
22224;DHT22;11281;52.194;21.006;2022-07-18T19:02:37;17.50;99.90
22224;DHT22;11281;52.194;21.006;2022-07-18T19:06:39;17.50;99.90
22224;DHT22;11281;52.194;21.006;2022-07-18T19:10:40;17.60;99.90
22224;DHT22;11281;52.194;21.006;2022-07-18T19:14:42;17.50;99.90
22224;DHT22;11281;52.194;21.006;2022-07-18T19:18:44;17.40;99.90
22224;DHT22;11281;52.194;21.006;2022-07-18T19:22:46;17.40;99.90
22224;DHT22;11281;52.194;21.006;2022-07-18T19:26:49;17.40;99.90
22224;DHT22;11281;52.194;21.006;2022-07-18T19:30:51;17.20;99.90
22224;DHT22;11281;52.194;21.006;2022-07-18T19:34:53;17.20;99.90
22224;DHT22;11281;52.194;21.006;2022-07-18T19:38:55;17.00;99.90
22224;DHT22;11281;52.194;21.006;2022-07-18T19:42:57;16.90;99.90
22224;DHT22;11281;52.194;21.006;2022-07-18T19:46:58;16.90;99.90
22224;DHT22;11281;52.194;21.006;2022-07-18T19:51:00;16.80;99.90
22224;DHT22;11281;52.194;21.006;2022-07-18T19:55:03;16.70;99.90
22224;DHT22;11281;52.194;21.006;2022-07-18T19:59:05;16.70;99.90
22224;DHT22;11281;52.194;21.006;2022-07-18T20:03:07;16.70;99.90
22224;DHT22;11281;52.194;21.006;2022-07-18T20:07:09;16.80;99.90
22224;DHT22;11281;52.194;21.006;2022-07-18T20:11:11;16.80;99.90
22224;DHT22;11281;52.194;21.006;2022-07-18T20:15:13;16.80;99.90
22224;DHT22;11281;52.194;21.006;2022-07-18T20:19:15;16.80;99.90
22224;DHT22;11281;52.194;21.006;2022-07-18T20:23:16;16.70;99.90
22224;DHT22;11281;52.194;21.006;2022-07-18T20:27:18;16.70;99.90
22224;DHT22;11281;52.194;21.006;2022-07-18T20:31:24;16.70;99.90
22224;DHT22;11281;52.194;21.006;2022-07-18T20:35:26;16.70;99.90
22224;DHT22;11281;52.194;21.006;2022-07-18T20:39:28;16.70;99.90
22224;DHT22;11281;52.194;21.006;2022-07-18T20:43:32;16.70;99.90
22224;DHT22;11281;52.194;21.006;2022-07-18T20:47:35;16.70;99.90
22224;DHT22;11281;52.194;21.006;2022-07-18T20:51:37;16.60;99.90
22224;DHT22;11281;52.194;21.006;2022-07-18T20:55:38;16.60;99.90
22224;DHT22;11281;52.194;21.006;2022-07-18T20:59:40;16.60;99.90
22224;DHT22;11281;52.194;21.006;2022-07-18T21:03:42;16.60;99.90
22224;DHT22;11281;52.194;21.006;2022-07-18T21:07:43;16.60;99.90
22224;DHT22;11281;52.194;21.006;2022-07-18T21:11:45;16.50;99.90
22224;DHT22;11281;52.194;21.006;2022-07-18T21:15:47;16.60;99.90
22224;DHT22;11281;52.194;21.006;2022-07-18T21:19:49;16.60;99.90
22224;DHT22;11281;52.194;21.006;2022-07-18T21:23:51;16.60;99.90
22224;DHT22;11281;52.194;21.006;2022-07-18T21:27:53;16.60;99.90
22224;DHT22;11281;52.194;21.006;2022-07-18T21:31:55;16.60;99.90
22224;DHT22;11281;52.194;21.006;2022-07-18T21:35:57;16.70;99.90
22224;DHT22;11281;52.194;21.006;2022-07-18T21:40:01;16.70;99.90
22224;DHT22;11281;52.194;21.006;2022-07-18T21:44:03;16.70;99.90
22224;DHT22;11281;52.194;21.006;2022-07-18T21:48:05;16.70;99.90
22224;DHT22;11281;52.194;21.006;2022-07-18T21:52:08;16.60;99.90
22224;DHT22;11281;52.194;21.006;2022-07-18T21:56:09;16.60;99.90
22224;DHT22;11281;52.194;21.006;2022-07-18T22:00:13;16.60;99.90
22224;DHT22;11281;52.194;21.006;2022-07-18T22:04:17;16.70;99.90
22224;DHT22;11281;52.194;21.006;2022-07-18T22:08:21;16.70;99.90
22224;DHT22;11281;52.194;21.006;2022-07-18T22:12:23;16.70;99.90
22224;DHT22;11281;52.194;21.006;2022-07-18T22:16:25;16.70;99.90
22224;DHT22;11281;52.194;21.006;2022-07-18T22:20:27;16.80;99.90
22224;DHT22;11281;52.194;21.006;2022-07-18T22:24:29;16.80;99.90
22224;DHT22;11281;52.194;21.006;2022-07-18T22:28:31;16.70;99.90
22224;DHT22;11281;52.194;21.006;2022-07-18T22:32:32;16.70;99.90
22224;DHT22;11281;52.194;21.006;2022-07-18T22:36:34;16.70;99.90
22224;DHT22;11281;52.194;21.006;2022-07-18T22:40:36;16.70;99.90
22224;DHT22;11281;52.194;21.006;2022-07-18T22:44:38;16.70;99.90
22224;DHT22;11281;52.194;21.006;2022-07-18T22:48:39;16.70;99.90
22224;DHT22;11281;52.194;21.006;2022-07-18T22:52:42;16.70;99.90
22224;DHT22;11281;52.194;21.006;2022-07-18T22:56:43;16.70;99.90
22224;DHT22;11281;52.194;21.006;2022-07-18T23:00:46;16.60;99.90
22224;DHT22;11281;52.194;21.006;2022-07-18T23:04:47;16.60;99.90
22224;DHT22;11281;52.194;21.006;2022-07-18T23:08:49;16.60;99.90
22224;DHT22;11281;52.194;21.006;2022-07-18T23:12:51;16.60;99.90
22224;DHT22;11281;52.194;21.006;2022-07-18T23:16:53;16.60;99.90
22224;DHT22;11281;52.194;21.006;2022-07-18T23:20:55;16.50;99.90
22224;DHT22;11281;52.194;21.006;2022-07-18T23:24:56;16.50;99.90
22224;DHT22;11281;52.194;21.006;2022-07-18T23:28:58;16.50;99.90
22224;DHT22;11281;52.194;21.006;2022-07-18T23:33:00;16.50;99.90
22224;DHT22;11281;52.194;21.006;2022-07-18T23:37:02;16.60;99.90
22224;DHT22;11281;52.194;21.006;2022-07-18T23:41:07;16.60;99.90
22224;DHT22;11281;52.194;21.006;2022-07-18T23:45:10;16.60;99.90
22224;DHT22;11281;52.194;21.006;2022-07-18T23:49:13;16.60;99.90
22224;DHT22;11281;52.194;21.006;2022-07-18T23:53:15;16.50;99.90
22224;DHT22;11281;52.194;21.006;2022-07-18T23:57:17;16.50;99.90
